createdAt,value
2022-09-02T00:01:47.019Z,8.68
2022-09-02T00:04:19.397Z,9.57
2022-09-02T00:06:50.193Z,11.33
2022-09-02T00:09:22.437Z,5.88
2022-09-02T00:11:53.529Z,8.03
2022-09-02T00:14:28.258Z,9.05
2022-09-02T00:16:57.060Z,5.28
2022-09-02T00:19:27.736Z,7.40
2022-09-02T00:21:58.576Z,6.80
2022-09-02T00:24:28.150Z,8.40
2022-09-02T00:26:57.087Z,8.88
2022-09-02T00:29:28.937Z,6.53
2022-09-02T00:31:58.344Z,7.05
2022-09-02T00:34:27.736Z,6.03
2022-09-02T00:36:57.052Z,6.85
2022-09-02T00:39:26.386Z,8.00
2022-09-02T00:41:55.677Z,5.85
2022-09-02T00:44:24.530Z,7.97
2022-09-02T00:46:55.029Z,7.90
2022-09-02T00:49:27.549Z,6.85
2022-09-02T00:51:59.026Z,5.80
2022-09-02T00:54:30.685Z,8.50
2022-09-02T00:57:01.652Z,9.05
2022-09-02T00:59:42.533Z,8.57
2022-09-02T01:02:13.679Z,7.88
2022-09-02T01:04:43.363Z,9.48
2022-09-02T01:07:12.766Z,8.10
2022-09-02T01:09:42.019Z,7.82
2022-09-02T01:12:13.022Z,6.93
2022-09-02T01:14:41.960Z,9.15
2022-09-02T01:17:12.532Z,9.60
2022-09-02T01:19:46.096Z,6.72
2022-09-02T01:22:22.292Z,8.93
2022-09-02T01:24:52.292Z,5.65
2022-09-02T01:27:23.676Z,8.85
2022-09-02T01:29:53.841Z,8.73
2022-09-02T01:32:23.541Z,8.10
2022-09-02T01:34:52.437Z,7.55
2022-09-02T01:37:24.005Z,9.35
2022-09-02T01:39:53.595Z,8.27
2022-09-02T01:42:23.267Z,6.45
2022-09-02T01:44:52.557Z,6.38
2022-09-02T01:47:26.690Z,10.20
2022-09-02T01:49:56.381Z,9.02
2022-09-02T01:52:29.286Z,8.18
2022-09-02T01:54:59.145Z,6.85
2022-09-02T01:57:28.137Z,6.32
2022-09-02T01:59:56.895Z,5.18
2022-09-02T02:02:26.002Z,8.93
2022-09-02T02:04:55.070Z,6.65
2022-09-02T02:07:25.155Z,6.75
2022-09-02T02:09:55.455Z,6.57
2022-09-02T02:12:25.437Z,8.52
2022-09-02T02:14:57.529Z,10.65
2022-09-02T02:17:26.328Z,7.07
2022-09-02T02:19:55.123Z,5.07
2022-09-02T02:22:24.454Z,5.60
2022-09-02T02:24:55.059Z,4.88
2022-09-02T02:27:23.919Z,8.60
2022-09-02T02:29:53.804Z,4.35
2022-09-02T02:32:26.327Z,7.43
2022-09-02T02:34:56.421Z,10.63
2022-09-02T02:37:25.716Z,5.97
2022-09-02T02:39:56.808Z,7.90
2022-09-02T02:42:27.608Z,4.60
2022-09-02T02:44:56.962Z,4.18
2022-09-02T02:47:27.054Z,4.65
2022-09-02T02:49:56.063Z,3.30
2022-09-02T02:52:24.872Z,5.65
2022-09-02T02:54:56.539Z,3.72
2022-09-02T02:57:25.535Z,5.78
2022-09-02T02:59:54.615Z,4.75
2022-09-02T03:02:24.234Z,3.03
2022-09-02T03:04:54.491Z,8.30
2022-09-02T03:07:24.719Z,4.30
2022-09-02T03:09:55.560Z,4.70
2022-09-02T03:12:25.792Z,3.95
2022-09-02T03:14:55.029Z,5.53
2022-09-02T03:17:24.011Z,4.35
2022-09-02T03:19:52.970Z,5.88
2022-09-02T03:22:22.078Z,4.10
2022-09-02T03:24:51.151Z,4.75
2022-09-02T03:27:21.651Z,3.95
2022-09-02T03:29:51.118Z,4.57
2022-09-02T03:32:19.997Z,4.38
2022-09-02T03:34:49.272Z,6.45
2022-09-02T03:37:19.013Z,6.18
2022-09-02T03:39:48.575Z,6.93
2022-09-02T03:42:19.565Z,4.03
2022-09-02T03:44:52.583Z,6.68
2022-09-02T03:47:24.471Z,4.78
2022-09-02T03:49:55.108Z,4.20
2022-09-02T03:52:26.015Z,4.53
2022-09-02T03:54:55.028Z,6.28
2022-09-02T03:57:26.097Z,5.13
2022-09-02T03:59:56.795Z,4.95
2022-09-02T04:02:26.265Z,3.33
2022-09-02T04:04:55.150Z,3.72
2022-09-02T04:07:24.337Z,4.07
2022-09-02T04:09:56.614Z,6.43
2022-09-02T04:12:32.177Z,3.60
2022-09-02T04:15:03.821Z,3.50
2022-09-02T04:17:33.630Z,3.10
2022-09-02T04:20:02.536Z,4.63
2022-09-02T04:22:35.073Z,3.88
2022-09-02T04:25:04.434Z,4.43
2022-09-02T04:27:34.147Z,4.13
2022-09-02T04:30:05.599Z,4.18
2022-09-02T04:32:40.716Z,3.47
2022-09-02T04:35:10.950Z,3.33
2022-09-02T04:37:41.020Z,3.25
2022-09-02T04:40:11.589Z,3.92
2022-09-02T04:42:40.776Z,10.13
2022-09-02T04:45:13.213Z,3.15
2022-09-02T04:47:42.170Z,3.38
2022-09-02T04:50:16.708Z,2.15
2022-09-02T04:53:00.199Z,2.25
2022-09-02T04:55:31.099Z,2.88
2022-09-02T04:58:01.911Z,1.98
2022-09-02T05:00:32.224Z,9.25
2022-09-02T05:03:01.371Z,2.97
2022-09-02T05:05:32.524Z,4.00
2022-09-02T05:08:04.773Z,2.55
2022-09-02T05:10:34.722Z,3.00
2022-09-02T05:13:03.620Z,2.60
2022-09-02T05:15:34.020Z,3.42
2022-09-02T05:18:04.310Z,2.63
2022-09-02T05:20:34.512Z,2.47
2022-09-02T05:23:03.610Z,2.60
2022-09-02T05:25:32.553Z,6.80
2022-09-02T05:28:02.046Z,2.40
2022-09-02T05:30:30.957Z,2.80
2022-09-02T05:33:01.493Z,2.38
2022-09-02T05:35:30.660Z,3.47
2022-09-02T05:38:01.105Z,4.22
2022-09-02T05:40:31.686Z,7.78
2022-09-02T05:43:00.794Z,2.80
2022-09-02T05:45:29.801Z,4.57
2022-09-02T05:47:58.794Z,3.22
2022-09-02T05:50:31.910Z,3.70
2022-09-02T05:53:01.386Z,2.70
2022-09-02T05:55:30.272Z,4.28
2022-09-02T05:57:59.534Z,3.47
2022-09-02T06:00:30.271Z,3.28
2022-09-02T06:03:02.556Z,3.40
2022-09-02T06:05:38.515Z,3.15
2022-09-02T06:08:17.555Z,3.30
2022-09-02T06:10:46.471Z,4.40
2022-09-02T06:15:55.255Z,1.63
2022-09-02T06:18:27.598Z,2.40
2022-09-02T06:20:59.557Z,6.15
2022-09-02T06:23:36.210Z,2.65
2022-09-02T06:26:05.466Z,2.33
2022-09-02T06:28:34.868Z,3.45
2022-09-02T06:31:08.510Z,3.58
2022-09-02T06:33:39.355Z,2.90
2022-09-02T06:36:14.664Z,2.67
2022-09-02T06:38:46.599Z,3.55
2022-09-02T06:41:18.140Z,4.68
2022-09-02T06:43:47.865Z,3.00
2022-09-02T06:46:25.972Z,4.35
2022-09-02T06:48:58.056Z,3.00
2022-09-02T06:51:31.911Z,3.70
2022-09-02T06:54:03.052Z,8.93
2022-09-02T06:56:35.768Z,2.70
2022-09-02T06:59:05.777Z,3.00
2022-09-02T07:01:56.293Z,2.28
2022-09-02T07:04:43.347Z,3.90
2022-09-02T07:07:18.256Z,2.83
2022-09-02T07:10:03.580Z,2.75
2022-09-02T07:12:36.351Z,1.73
2022-09-02T07:15:10.737Z,3.65
2022-09-02T07:17:42.156Z,2.53
2022-09-02T07:20:15.661Z,1.75
2022-09-02T07:22:57.231Z,4.05
2022-09-02T07:25:28.856Z,2.47
2022-09-02T07:27:57.911Z,1.80
2022-09-02T07:30:27.734Z,2.22
2022-09-02T07:33:06.668Z,2.78
2022-09-02T07:35:37.194Z,3.97
2022-09-02T07:38:10.314Z,1.50
2022-09-02T07:40:41.388Z,2.42
2022-09-02T07:43:12.928Z,3.10
2022-09-02T07:45:44.782Z,2.20
2022-09-02T07:48:16.077Z,2.67
2022-09-02T07:50:47.627Z,3.92
2022-09-02T07:53:21.768Z,2.75
2022-09-02T07:55:51.696Z,2.33
2022-09-02T07:58:22.707Z,3.83
2022-09-02T08:00:52.912Z,1.75
2022-09-02T08:03:22.921Z,6.35
2022-09-02T08:05:55.719Z,2.67
2022-09-02T08:08:28.648Z,4.13
2022-09-02T08:10:58.144Z,2.70
2022-09-02T08:13:27.701Z,3.78
2022-09-02T08:15:57.351Z,4.82
2022-09-02T08:18:26.548Z,4.45
2022-09-02T08:20:55.938Z,3.88
2022-09-02T08:23:36.841Z,5.25
2022-09-02T08:26:07.560Z,4.78
2022-09-02T08:28:36.528Z,3.78
2022-09-02T08:31:08.855Z,4.78
2022-09-02T08:33:38.448Z,4.93
2022-09-02T08:36:11.273Z,5.65
2022-09-02T08:38:42.216Z,3.83
2022-09-02T08:41:19.487Z,4.90
2022-09-02T08:43:50.372Z,5.03
2022-09-02T08:46:20.222Z,4.45
2022-09-02T08:48:53.149Z,4.57
2022-09-02T08:54:00.371Z,4.38
2022-09-02T08:56:29.542Z,4.65
2022-09-02T08:59:02.569Z,5.97
2022-09-02T09:01:44.407Z,6.50
2022-09-02T09:04:46.026Z,5.13
2022-09-02T09:07:26.382Z,6.85
2022-09-02T09:10:17.747Z,5.38
2022-09-02T09:13:03.005Z,5.75
2022-09-02T09:15:41.012Z,5.55
2022-09-02T09:18:13.399Z,6.05
2022-09-02T09:20:44.986Z,9.70
2022-09-02T09:23:26.997Z,5.78
2022-09-02T09:26:06.695Z,8.23
2022-09-02T09:28:42.534Z,7.00
2022-09-02T09:31:15.125Z,5.22
2022-09-02T09:33:57.279Z,5.57
2022-09-02T09:36:48.326Z,6.30
2022-09-02T09:39:26.217Z,6.68
2022-09-02T09:41:58.606Z,10.32
2022-09-02T09:44:40.593Z,7.80
2022-09-02T09:47:17.356Z,9.32
2022-09-02T09:49:47.469Z,5.70
2022-09-02T09:52:27.671Z,7.40
2022-09-02T09:55:14.191Z,7.18
2022-09-02T09:57:46.632Z,7.45
2022-09-02T10:00:21.722Z,8.05
2022-09-02T10:02:52.670Z,10.43
2022-09-02T10:05:32.502Z,11.63
2022-09-02T10:08:03.111Z,9.40
2022-09-02T10:10:34.502Z,11.70
2022-09-02T10:13:23.448Z,11.00
2022-09-02T10:16:07.095Z,7.10
2022-09-02T10:18:43.320Z,7.85
2022-09-02T10:43:06.508Z,6.72
2022-09-02T10:45:38.870Z,6.70
2022-09-02T10:48:29.825Z,10.13
2022-09-02T10:51:07.182Z,10.65
2022-09-02T10:53:48.344Z,9.10
2022-09-02T10:56:22.235Z,6.90
2022-09-02T11:01:33.821Z,8.45
2022-09-02T11:04:10.148Z,5.60
2022-09-02T11:07:02.100Z,6.45
2022-09-02T11:09:37.291Z,8.75
2022-09-02T11:12:11.311Z,6.93
2022-09-02T11:14:54.224Z,12.35
2022-09-02T11:17:32.531Z,7.13
2022-09-02T11:20:09.956Z,5.30
2022-09-02T11:22:46.671Z,5.88
2022-09-02T11:25:22.621Z,7.70
2022-09-02T11:28:00.996Z,7.07
2022-09-02T11:30:40.289Z,5.57
2022-09-02T11:33:17.447Z,6.32
2022-09-02T11:35:46.581Z,7.03
2022-09-02T11:38:34.464Z,9.55
2022-09-02T11:41:34.222Z,7.38
2022-09-02T11:44:36.435Z,5.63
2022-09-02T11:47:31.600Z,7.18
2022-09-02T11:50:22.145Z,9.05
2022-09-02T11:53:06.264Z,6.43
2022-09-02T11:55:38.910Z,9.10
2022-09-02T11:58:07.923Z,11.75
2022-09-02T12:00:58.616Z,8.02
2022-09-02T12:03:58.434Z,6.90
2022-09-02T12:06:21.990Z,8.90
2022-09-02T12:09:18.985Z,10.00
2022-09-02T12:11:55.205Z,6.82
2022-09-02T12:15:06.737Z,6.03
2022-09-02T12:18:07.283Z,7.45
2022-09-02T12:21:18.311Z,8.32
2022-09-02T12:24:22.204Z,6.82
2022-09-02T12:27:24.438Z,13.05
2022-09-02T12:29:54.007Z,8.55
2022-09-02T12:33:01.212Z,8.57
2022-09-02T12:35:51.774Z,10.98
2022-09-02T12:38:36.422Z,8.40
2022-09-02T12:41:29.770Z,8.13
2022-09-02T12:44:25.792Z,8.52
2022-09-02T12:47:02.772Z,11.00
2022-09-02T12:49:50.461Z,9.82
2022-09-02T12:52:44.627Z,9.38
2022-09-02T12:55:21.025Z,9.13
2022-09-02T12:57:52.729Z,7.95
2022-09-02T13:00:32.944Z,7.22
2022-09-02T13:03:19.477Z,9.73
2022-09-02T13:05:57.495Z,8.68
2022-09-02T13:09:05.462Z,9.05
2022-09-02T13:12:14.713Z,9.90
2022-09-02T13:15:04.357Z,13.07
2022-09-02T13:17:48.498Z,7.05
2022-09-02T13:20:55.132Z,15.93
2022-09-02T13:24:10.389Z,10.60
2022-09-02T13:27:08.720Z,8.25
2022-09-02T13:30:07.146Z,6.57
2022-09-02T13:32:37.660Z,7.38
2022-09-02T13:35:09.492Z,11.90
2022-09-02T13:37:40.519Z,8.15
2022-09-02T13:40:20.845Z,9.77
2022-09-02T13:42:53.563Z,6.93
2022-09-02T13:45:24.154Z,8.52
2022-09-02T13:47:55.273Z,10.40
2022-09-02T13:50:27.261Z,8.80
2022-09-02T13:55:53.384Z,11.45
2022-09-02T13:58:36.059Z,11.52
2022-09-02T14:01:26.242Z,10.07
2022-09-02T14:03:58.185Z,9.98
2022-09-02T14:06:29.834Z,16.05
2022-09-02T14:09:02.784Z,8.80
2022-09-02T14:14:05.303Z,5.97
2022-09-02T14:16:36.038Z,6.28
2022-09-02T14:19:07.280Z,7.25
2022-09-02T14:21:38.215Z,8.95
2022-09-02T14:24:13.041Z,8.07
2022-09-02T14:26:44.804Z,8.40
2022-09-02T14:29:17.805Z,7.50
2022-09-02T14:31:48.085Z,7.72
2022-09-02T14:34:37.510Z,7.18
2022-09-02T14:37:21.153Z,5.95
2022-09-02T14:40:09.646Z,4.82
2022-09-02T14:42:46.930Z,6.55
2022-09-02T14:45:27.740Z,8.43
2022-09-02T14:47:58.131Z,4.82
2022-09-02T14:50:31.248Z,4.25
2022-09-02T14:55:47.266Z,3.28
2022-09-02T14:58:16.855Z,3.35
2022-09-02T15:00:52.298Z,3.55
2022-09-02T15:03:22.138Z,2.83
2022-09-02T15:05:52.494Z,4.78
2022-09-02T15:08:22.078Z,2.05
2022-09-02T15:10:51.320Z,1.70
2022-09-02T15:13:27.918Z,2.28
2022-09-02T15:15:59.632Z,4.05
2022-09-02T15:18:28.878Z,5.55
2022-09-02T15:20:58.008Z,6.38
2022-09-02T15:23:28.373Z,1.95
2022-09-02T15:25:57.830Z,2.42
2022-09-02T15:28:26.816Z,2.25
2022-09-02T15:31:00.781Z,3.20
2022-09-02T15:33:30.692Z,7.45
2022-09-02T15:36:07.739Z,2.63
2022-09-02T15:38:37.883Z,2.63
2022-09-02T15:41:18.641Z,3.08
2022-09-02T15:43:49.132Z,3.92
2022-09-02T15:46:25.780Z,2.75
2022-09-02T15:48:59.034Z,4.07
2022-09-02T15:51:31.369Z,3.58
2022-09-02T15:54:01.939Z,2.72
2022-09-02T15:56:32.912Z,4.30
2022-09-02T15:59:03.695Z,4.90
2022-09-02T16:01:35.583Z,5.10
2022-09-02T16:04:05.275Z,2.15
2022-09-02T16:06:36.721Z,3.47
2022-09-02T16:09:05.978Z,5.20
2022-09-02T16:11:35.356Z,4.53
2022-09-02T16:14:04.486Z,5.07
2022-09-02T16:16:36.091Z,8.55
2022-09-02T16:19:07.202Z,3.63
2022-09-02T16:21:39.314Z,3.50
2022-09-02T16:24:09.123Z,5.78
2022-09-02T16:26:39.563Z,4.25
2022-09-02T16:29:10.473Z,4.82
2022-09-02T16:31:42.851Z,5.68
2022-09-02T16:34:13.658Z,9.93
2022-09-02T16:36:44.356Z,6.93
2022-09-02T16:39:14.634Z,5.78
2022-09-02T16:41:45.834Z,4.72
2022-09-02T16:44:17.478Z,4.63
2022-09-02T16:46:49.454Z,2.95
2022-09-02T16:49:20.187Z,5.95
2022-09-02T16:51:50.648Z,3.85
2022-09-02T16:54:31.287Z,4.07
2022-09-02T16:57:01.806Z,5.78
2022-09-02T16:59:31.800Z,4.20
2022-09-02T17:02:02.356Z,4.93
2022-09-02T17:04:31.329Z,5.65
2022-09-02T17:07:00.411Z,3.70
2022-09-02T17:09:29.446Z,4.28
2022-09-02T17:11:58.571Z,4.18
2022-09-02T17:14:27.609Z,4.43
2022-09-02T17:16:56.659Z,5.47
2022-09-02T17:19:32.142Z,3.28
2022-09-02T17:22:01.636Z,4.45
2022-09-02T17:24:31.844Z,4.50
2022-09-02T17:27:01.397Z,4.57
2022-09-02T17:29:48.664Z,5.70
2022-09-02T17:32:18.257Z,4.03
2022-09-02T17:34:51.077Z,7.15
2022-09-02T17:37:21.592Z,3.97
2022-09-02T17:39:51.312Z,4.32
2022-09-02T17:42:21.510Z,3.50
2022-09-02T17:44:50.600Z,4.90
2022-09-02T17:47:21.427Z,6.63
2022-09-02T17:49:52.135Z,4.10
2022-09-02T17:52:23.234Z,5.38
2022-09-02T17:54:53.475Z,6.53
2022-09-02T17:57:31.394Z,4.50
2022-09-02T18:00:08.410Z,7.50
2022-09-02T18:03:12.401Z,5.03
2022-09-02T18:05:57.956Z,6.30
2022-09-02T18:08:35.353Z,4.05
2022-09-02T18:11:07.413Z,6.38
2022-09-02T18:13:48.322Z,5.13
2022-09-02T18:16:32.451Z,4.93
2022-09-02T18:19:14.428Z,4.15
2022-09-02T18:21:54.688Z,4.65
2022-09-02T18:24:36.771Z,5.03
2022-09-02T18:27:12.444Z,5.97
2022-09-02T18:29:57.151Z,4.10
2022-09-02T18:32:45.353Z,4.68
2022-09-02T18:35:23.178Z,5.38
2022-09-02T18:38:02.295Z,4.45
2022-09-02T18:40:44.343Z,4.60
2022-09-02T18:43:22.277Z,5.18
2022-09-02T18:45:52.859Z,5.28
2022-09-02T18:48:27.004Z,4.60
2022-09-02T18:51:00.252Z,5.35
2022-09-02T18:53:41.122Z,5.65
2022-09-02T18:56:13.481Z,2.40
2022-09-02T18:58:48.144Z,4.05
2022-09-02T19:01:25.074Z,5.03
2022-09-02T19:03:54.565Z,7.75
2022-09-02T19:06:26.209Z,4.63
2022-09-02T19:08:59.104Z,5.35
2022-09-02T19:11:29.063Z,3.17
2022-09-02T19:14:03.027Z,4.03
2022-09-02T19:16:36.400Z,5.97
2022-09-02T19:19:06.637Z,6.15
2022-09-02T19:21:41.222Z,4.68
2022-09-02T19:24:14.798Z,3.63
2022-09-02T19:26:46.089Z,4.45
2022-09-02T19:29:17.631Z,3.95
2022-09-02T19:31:48.343Z,3.88
2022-09-02T19:34:19.790Z,4.90
2022-09-02T19:36:51.074Z,5.93
2022-09-02T19:39:21.778Z,4.22
2022-09-02T19:41:50.746Z,4.30
2022-09-02T19:44:20.467Z,3.60
2022-09-02T19:47:49.858Z,3.97
2022-09-02T19:49:39.084Z,2.70
2022-09-02T19:52:08.358Z,2.00
2022-09-02T19:54:39.068Z,3.10
2022-09-02T19:57:07.986Z,3.88
2022-09-02T19:59:36.853Z,5.00
2022-09-02T20:02:06.554Z,2.90
2022-09-02T20:04:35.500Z,1.63
2022-09-02T20:07:04.501Z,2.20
2022-09-02T20:09:33.465Z,4.78
2022-09-02T20:12:04.982Z,4.13
2022-09-02T20:14:36.344Z,2.85
2022-09-02T20:17:10.525Z,2.42
2022-09-02T20:19:43.506Z,8.15
2022-09-02T20:22:15.108Z,2.45
2022-09-02T20:24:44.453Z,4.05
2022-09-02T20:27:23.457Z,1.63
2022-09-02T20:30:03.608Z,3.60
2022-09-02T20:32:44.572Z,1.48
2022-09-02T20:35:33.569Z,2.97
2022-09-02T20:38:16.887Z,2.20
2022-09-02T20:40:55.195Z,3.85
2022-09-02T20:43:47.595Z,2.70
2022-09-02T20:46:28.017Z,4.15
2022-09-02T20:49:12.077Z,3.35
2022-09-02T20:51:48.194Z,3.63
2022-09-02T20:54:31.533Z,4.20
2022-09-02T20:59:49.598Z,8.60
2022-09-02T21:02:21.883Z,3.47
2022-09-02T21:04:55.884Z,2.15
2022-09-02T21:07:28.030Z,4.07
2022-09-02T21:10:06.652Z,3.35
2022-09-02T21:12:42.917Z,2.65
2022-09-02T21:15:27.650Z,2.60
2022-09-02T21:18:03.558Z,2.90
2022-09-02T21:20:44.091Z,3.10
2022-09-02T21:23:21.617Z,4.18
2022-09-02T21:25:55.969Z,3.75
2022-09-02T21:28:33.929Z,4.30
2022-09-02T21:31:10.047Z,3.40
2022-09-02T21:33:38.933Z,4.05
2022-09-02T21:36:08.275Z,2.95
2022-09-02T21:38:41.310Z,2.35
2022-09-02T21:41:30.279Z,4.47
2022-09-02T21:44:06.602Z,3.97
2022-09-02T21:46:48.603Z,3.17
2022-09-02T21:49:32.477Z,3.58
2022-09-02T21:52:13.858Z,3.50
2022-09-02T21:54:59.109Z,4.72
2022-09-02T21:57:43.484Z,3.97
2022-09-02T22:00:16.099Z,3.88
2022-09-02T22:02:58.265Z,4.80
2022-09-02T22:05:43.301Z,4.88
2022-09-02T22:08:22.667Z,3.90
2022-09-02T22:11:02.629Z,2.97
2022-09-02T22:13:32.836Z,3.13
2022-09-02T22:16:16.379Z,3.58
2022-09-02T22:18:52.532Z,4.20
2022-09-02T22:21:30.517Z,2.38
2022-09-02T22:23:59.669Z,3.55
2022-09-02T22:26:38.425Z,3.60
2022-09-02T22:29:14.607Z,3.83
2022-09-02T22:31:45.999Z,3.90
2022-09-02T22:34:18.741Z,4.40
2022-09-02T22:37:01.788Z,5.63
2022-09-02T22:39:37.857Z,4.90
2022-09-02T22:42:13.872Z,4.43
2022-09-02T22:45:06.665Z,3.90
2022-09-02T22:47:55.108Z,4.88
2022-09-02T22:50:50.175Z,4.18
2022-09-02T22:53:19.111Z,3.33
2022-09-02T22:55:58.640Z,4.00
2022-09-02T22:58:59.667Z,4.13
2022-09-02T23:01:36.848Z,4.95
2022-09-02T23:04:23.515Z,4.97
2022-09-02T23:06:55.422Z,2.78
2022-09-02T23:09:24.291Z,2.00
2022-09-02T23:12:02.516Z,3.38
2022-09-02T23:14:42.019Z,6.05
2022-09-02T23:17:25.757Z,3.65
2022-09-02T23:20:05.216Z,4.35
2022-09-02T23:22:56.635Z,2.63
2022-09-02T23:25:35.699Z,3.60
2022-09-02T23:28:15.313Z,2.55
2022-09-02T23:31:03.129Z,3.40
2022-09-02T23:33:51.434Z,3.45
2022-09-02T23:36:35.327Z,4.15
2022-09-02T23:39:25.288Z,3.70
2022-09-02T23:42:00.869Z,4.22
2022-09-02T23:44:31.269Z,2.92
2022-09-02T23:47:13.336Z,2.65
2022-09-02T23:49:53.054Z,2.10
2022-09-02T23:52:33.771Z,4.60
2022-09-02T23:55:13.542Z,4.70
2022-09-02T23:58:05.379Z,5.13
